createdAt,value
2022-11-26T00:00:54.507Z,0.26
2022-11-26T00:03:22.556Z,0.37
2022-11-26T00:05:52.201Z,0.32
2022-11-26T00:08:33.358Z,0.28
2022-11-26T00:11:01.878Z,0.21
2022-11-26T00:13:31.819Z,0.29
2022-11-26T00:15:59.278Z,0.29
2022-11-26T00:18:26.985Z,0.33
2022-11-26T00:21:01.373Z,0.19
2022-11-26T00:23:29.244Z,0.14
2022-11-26T00:26:17.789Z,0.08
2022-11-26T00:28:58.326Z,0.01
2022-11-26T00:31:27.464Z,-0.33
2022-11-26T00:33:57.060Z,-0.36
2022-11-26T00:36:31.968Z,-0.33
2022-11-26T00:39:24.093Z,-0.22
2022-11-26T00:41:53.836Z,-0.13
2022-11-26T00:44:24.360Z,-0.09
2022-11-26T00:46:52.353Z,-0.03
2022-11-26T00:49:21.276Z,-0.13
2022-11-26T00:51:57.101Z,-0.25
2022-11-26T00:54:25.364Z,-0.31
2022-11-26T00:56:52.873Z,-0.38
2022-11-26T00:59:22.795Z,-0.27
2022-11-26T01:01:50.874Z,-0.31
2022-11-26T01:04:19.254Z,-0.37
2022-11-26T01:06:46.864Z,-0.36
2022-11-26T01:09:18.823Z,-0.34
2022-11-26T01:11:50.917Z,-0.56
2022-11-26T01:14:22.378Z,-0.68
2022-11-26T01:16:57.465Z,-0.78
2022-11-26T01:19:25.081Z,-0.71
2022-11-26T01:21:52.438Z,-0.70
2022-11-26T01:24:19.862Z,-0.60
2022-11-26T01:26:46.880Z,-0.58
2022-11-26T01:29:16.550Z,-0.70
2022-11-26T01:31:44.195Z,-0.60
2022-11-26T01:34:11.338Z,-0.69
2022-11-26T01:36:40.875Z,-0.82
2022-11-26T01:39:19.229Z,-0.78
2022-11-26T01:42:13.353Z,-0.62
2022-11-26T01:44:40.753Z,-0.48
2022-11-26T01:47:40.444Z,-0.64
2022-11-26T01:50:32.466Z,-0.70
2022-11-26T01:53:09.818Z,-0.81
2022-11-26T01:55:45.217Z,-0.89
2022-11-26T01:58:19.001Z,-0.85
2022-11-26T02:00:49.178Z,-0.76
2022-11-26T02:03:18.463Z,-0.48
2022-11-26T02:05:56.774Z,-0.34
2022-11-26T02:08:32.287Z,-0.27
2022-11-26T02:10:59.514Z,-0.27
2022-11-26T02:13:27.163Z,-0.18
2022-11-26T02:16:15.341Z,-0.24
2022-11-26T02:18:52.134Z,-0.15
2022-11-26T02:21:28.447Z,-0.16
2022-11-26T02:24:15.858Z,-0.04
2022-11-26T02:27:00.754Z,0.00
2022-11-26T02:30:06.777Z,-0.07
2022-11-26T02:32:39.615Z,0.12
2022-11-26T02:35:29.318Z,-0.04
2022-11-26T02:38:01.573Z,-0.10
2022-11-26T02:40:29.606Z,-0.09
2022-11-26T02:42:57.266Z,0.01
2022-11-26T02:45:28.967Z,0.07
2022-11-26T02:47:59.994Z,0.04
2022-11-26T02:50:35.319Z,-0.03
2022-11-26T02:53:04.837Z,0.05
2022-11-26T02:55:40.420Z,0.43
2022-11-26T02:58:08.104Z,0.42
2022-11-26T03:00:38.315Z,0.39
2022-11-26T03:03:40.376Z,0.40
2022-11-26T03:06:11.884Z,0.42
2022-11-26T03:08:39.244Z,0.39
2022-11-26T03:11:07.119Z,0.42
2022-11-26T03:13:34.703Z,0.38
2022-11-26T03:16:02.039Z,0.34
2022-11-26T03:18:29.475Z,0.35
2022-11-26T03:20:57.071Z,0.70
2022-11-26T03:23:25.357Z,0.77
2022-11-26T03:26:05.743Z,0.88
2022-11-26T03:28:33.124Z,0.96
2022-11-26T03:31:00.621Z,1.12
2022-11-26T03:33:28.055Z,1.09
2022-11-26T03:35:55.416Z,1.20
2022-11-26T03:38:22.434Z,1.35
2022-11-26T03:40:58.328Z,1.37
2022-11-26T03:43:26.624Z,1.36
2022-11-26T03:45:54.106Z,1.39
2022-11-26T03:48:21.864Z,1.46
2022-11-26T03:50:56.058Z,1.48
2022-11-26T03:53:24.684Z,1.60
2022-11-26T03:55:53.021Z,1.70
2022-11-26T03:58:22.218Z,1.71
2022-11-26T04:00:49.499Z,1.79
2022-11-26T04:03:17.222Z,1.82
2022-11-26T04:05:45.354Z,1.82
2022-11-26T04:08:13.764Z,1.82
2022-11-26T04:10:40.857Z,1.88
2022-11-26T04:13:07.867Z,1.81
2022-11-26T04:15:35.361Z,1.82
2022-11-26T04:18:02.774Z,1.87
2022-11-26T04:20:30.200Z,2.16
2022-11-26T04:22:57.610Z,2.15
2022-11-26T04:25:26.395Z,2.14
2022-11-26T04:27:53.466Z,2.23
2022-11-26T04:30:20.726Z,2.18
2022-11-26T04:32:47.991Z,2.22
2022-11-26T04:35:15.613Z,2.19
2022-11-26T04:37:42.833Z,2.31
2022-11-26T04:40:11.660Z,2.33
2022-11-26T04:42:46.350Z,2.48
2022-11-26T04:45:13.572Z,2.35
2022-11-26T04:47:43.105Z,2.31
2022-11-26T04:50:13.512Z,2.38
2022-11-26T04:52:41.225Z,2.45
2022-11-26T04:55:08.956Z,2.58
2022-11-26T04:57:36.405Z,2.71
2022-11-26T05:00:05.739Z,2.91
2022-11-26T05:02:33.895Z,3.10
2022-11-26T05:05:01.312Z,3.16
2022-11-26T05:07:28.830Z,3.14
2022-11-26T05:09:56.267Z,2.94
2022-11-26T05:12:23.753Z,3.02
2022-11-26T05:14:51.122Z,2.95
2022-11-26T05:17:19.002Z,3.08
2022-11-26T05:19:48.091Z,3.19
2022-11-26T05:22:16.564Z,3.19
2022-11-26T05:24:45.019Z,3.15
2022-11-26T05:27:11.991Z,3.16
2022-11-26T05:29:38.972Z,3.18
2022-11-26T05:32:06.449Z,3.28
2022-11-26T05:34:40.891Z,3.26
2022-11-26T05:37:08.673Z,3.34
2022-11-26T05:39:37.067Z,3.48
2022-11-26T05:42:08.910Z,3.53
2022-11-26T05:44:37.416Z,3.53
2022-11-26T05:47:04.940Z,3.51
2022-11-26T05:49:31.948Z,3.49
2022-11-26T05:52:00.105Z,3.57
2022-11-26T05:54:27.327Z,3.58
2022-11-26T05:56:59.938Z,3.63
2022-11-26T05:59:27.987Z,3.69
2022-11-26T06:01:55.421Z,3.72
2022-11-26T06:04:23.083Z,3.78
2022-11-26T06:06:50.196Z,3.75
2022-11-26T06:09:19.347Z,3.85
2022-11-26T06:11:46.654Z,3.88
2022-11-26T06:14:14.607Z,3.96
2022-11-26T06:16:42.726Z,3.87
2022-11-26T06:19:11.565Z,3.93
2022-11-26T06:21:38.821Z,3.91
2022-11-26T06:24:08.118Z,3.92
2022-11-26T06:26:36.538Z,4.03
2022-11-26T06:29:05.052Z,4.00
2022-11-26T06:31:33.362Z,4.02
2022-11-26T06:34:00.618Z,4.01
2022-11-26T06:36:27.997Z,4.01
2022-11-26T06:38:55.543Z,4.03
2022-11-26T06:41:22.809Z,4.13
2022-11-26T06:43:50.366Z,4.08
2022-11-26T06:46:17.781Z,4.14
2022-11-26T06:48:45.241Z,4.19
2022-11-26T06:51:15.814Z,4.23
2022-11-26T06:53:43.482Z,4.20
2022-11-26T06:56:18.410Z,4.24
2022-11-26T06:58:47.737Z,4.29
2022-11-26T07:01:18.855Z,4.38
2022-11-26T07:03:47.033Z,4.47
2022-11-26T07:06:25.877Z,4.42
2022-11-26T07:08:54.614Z,4.36
2022-11-26T07:11:24.157Z,4.40
2022-11-26T07:13:51.849Z,4.38
2022-11-26T07:16:20.476Z,4.39
2022-11-26T07:18:57.693Z,4.45
2022-11-26T07:21:34.360Z,4.39
2022-11-26T07:24:01.251Z,4.46
2022-11-26T07:26:28.243Z,4.43
2022-11-26T07:28:55.798Z,4.61
2022-11-26T07:31:24.088Z,4.59
2022-11-26T07:33:52.456Z,4.59
2022-11-26T07:36:24.563Z,4.59
2022-11-26T07:38:58.004Z,4.53
2022-11-26T07:41:28.384Z,4.59
2022-11-26T07:43:55.871Z,4.62
2022-11-26T07:46:25.995Z,4.61
2022-11-26T07:48:59.932Z,4.71
2022-11-26T07:51:32.986Z,4.71
2022-11-26T07:54:08.574Z,4.65
2022-11-26T07:56:36.746Z,4.71
2022-11-26T07:59:04.194Z,4.62
2022-11-26T08:01:32.980Z,4.65
2022-11-26T08:04:01.150Z,4.80
2022-11-26T08:06:30.386Z,4.81
2022-11-26T08:09:00.504Z,4.83
2022-11-26T08:11:30.275Z,4.67
2022-11-26T08:14:01.165Z,4.80
2022-11-26T08:16:29.394Z,4.85
2022-11-26T08:19:05.509Z,4.81
2022-11-26T08:21:33.720Z,4.82
2022-11-26T08:24:08.199Z,4.91
2022-11-26T08:26:42.452Z,4.92
2022-11-26T08:29:14.877Z,5.00
2022-11-26T08:31:46.471Z,5.02
2022-11-26T08:34:16.226Z,5.12
2022-11-26T08:36:45.653Z,5.16
2022-11-26T08:39:18.112Z,5.16
2022-11-26T08:41:50.568Z,5.15
2022-11-26T08:44:19.593Z,5.21
2022-11-26T08:46:49.186Z,5.24
2022-11-26T08:49:17.302Z,5.32
2022-11-26T08:51:44.716Z,5.33
2022-11-26T08:54:12.345Z,5.34
2022-11-26T08:56:39.962Z,5.39
2022-11-26T08:59:07.107Z,5.40
2022-11-26T09:01:34.825Z,5.49
2022-11-26T09:04:03.715Z,5.52
2022-11-26T09:06:33.372Z,5.54
2022-11-26T09:09:13.719Z,5.57
2022-11-26T09:11:45.902Z,5.60
2022-11-26T09:14:14.195Z,5.72
2022-11-26T09:16:42.438Z,5.62
2022-11-26T09:19:14.399Z,5.70
2022-11-26T09:21:41.953Z,5.77
2022-11-26T09:24:09.347Z,5.77
2022-11-26T09:26:37.081Z,5.76
2022-11-26T09:29:06.706Z,5.81
2022-11-26T09:31:33.724Z,5.79
2022-11-26T09:34:02.350Z,5.85
2022-11-26T09:36:32.033Z,5.85
2022-11-26T09:38:59.966Z,5.83
2022-11-26T09:42:07.117Z,5.95
2022-11-26T09:45:03.029Z,6.02
2022-11-26T09:47:39.505Z,6.04
2022-11-26T09:50:06.804Z,6.03
2022-11-26T09:53:01.946Z,6.04
2022-11-26T09:55:40.663Z,6.02
2022-11-26T09:58:34.827Z,6.08
2022-11-26T10:01:04.415Z,6.17
2022-11-26T10:03:35.315Z,6.15
2022-11-26T10:06:36.074Z,6.18
2022-11-26T10:09:35.998Z,6.26
2022-11-26T10:12:25.886Z,6.31
2022-11-26T10:14:56.736Z,6.33
2022-11-26T10:17:26.796Z,6.32
2022-11-26T10:20:18.845Z,6.32
2022-11-26T10:22:57.388Z,6.42
2022-11-26T10:25:31.447Z,6.63
2022-11-26T10:27:59.638Z,6.72
2022-11-26T10:30:30.523Z,6.87
2022-11-26T10:33:02.837Z,6.95
2022-11-26T10:35:30.407Z,6.98
2022-11-26T10:37:58.324Z,7.18
2022-11-26T10:40:32.558Z,7.21
2022-11-26T10:43:08.813Z,7.23
2022-11-26T10:45:44.457Z,7.18
2022-11-26T10:48:37.813Z,7.18
2022-11-26T10:51:26.414Z,7.34
2022-11-26T10:54:05.232Z,7.26
2022-11-26T10:56:42.347Z,7.42
2022-11-26T10:59:30.667Z,7.54
2022-11-26T11:02:04.518Z,7.54
2022-11-26T11:04:40.876Z,7.56
2022-11-26T11:07:39.073Z,7.63
2022-11-26T11:10:14.316Z,7.57
2022-11-26T11:12:50.255Z,7.62
2022-11-26T11:15:27.685Z,7.67
2022-11-26T11:18:05.385Z,7.52
2022-11-26T11:20:40.727Z,7.62
2022-11-26T11:23:11.227Z,7.43
2022-11-26T11:25:46.327Z,7.34
2022-11-26T11:28:20.587Z,7.30
2022-11-26T11:30:59.915Z,7.29
2022-11-26T11:33:28.947Z,7.21
2022-11-26T11:36:01.667Z,7.19
2022-11-26T11:38:32.135Z,7.12
2022-11-26T11:41:03.827Z,7.22
2022-11-26T11:43:36.506Z,7.21
2022-11-26T11:46:37.607Z,7.20
2022-11-26T11:49:30.426Z,7.15
2022-11-26T11:52:20.785Z,7.05
2022-11-26T11:55:00.515Z,6.97
2022-11-26T11:57:53.293Z,6.92
2022-11-26T12:00:26.632Z,6.79
2022-11-26T12:02:57.551Z,6.81
2022-11-26T12:05:37.666Z,6.78
2022-11-26T12:08:22.305Z,6.75
2022-11-26T12:11:13.546Z,6.78
2022-11-26T12:13:48.635Z,6.62
2022-11-26T12:16:19.180Z,6.72
2022-11-26T12:18:55.478Z,6.79
2022-11-26T12:22:17.226Z,6.64
2022-11-26T12:24:51.183Z,6.69
2022-11-26T12:27:28.027Z,6.61
2022-11-26T12:30:13.467Z,6.68
2022-11-26T12:32:54.188Z,6.61
2022-11-26T12:35:52.957Z,6.72
2022-11-26T12:38:29.044Z,6.69
2022-11-26T12:41:11.567Z,6.77
2022-11-26T12:44:02.203Z,6.77
2022-11-26T12:46:58.404Z,6.68
2022-11-26T12:49:30.533Z,6.74
2022-11-26T12:52:09.804Z,6.72
2022-11-26T12:54:54.976Z,6.75
2022-11-26T12:57:30.970Z,6.77
2022-11-26T13:00:25.616Z,6.79
2022-11-26T13:02:55.335Z,6.78
2022-11-26T13:05:48.589Z,6.69
2022-11-26T13:08:27.251Z,6.75
2022-11-26T13:11:45.443Z,6.76
2022-11-26T13:14:12.363Z,6.76
2022-11-26T13:17:10.123Z,6.71
2022-11-26T13:19:56.242Z,6.74
2022-11-26T13:23:02.086Z,6.62
2022-11-26T13:25:51.699Z,6.63
2022-11-26T13:28:47.811Z,6.56
2022-11-26T13:31:37.345Z,6.61
2022-11-26T13:34:18.073Z,6.65
2022-11-26T13:37:21.784Z,6.70
2022-11-26T13:39:48.693Z,6.77
2022-11-26T13:42:43.034Z,6.75
2022-11-26T13:45:19.024Z,6.70
2022-11-26T13:47:55.995Z,6.63
2022-11-26T13:50:44.944Z,6.57
2022-11-26T13:53:38.731Z,6.53
2022-11-26T13:56:09.945Z,6.49
2022-11-26T13:58:52.505Z,6.43
2022-11-26T14:01:37.384Z,6.37
2022-11-26T14:04:24.784Z,6.25
2022-11-26T14:07:04.657Z,6.19
2022-11-26T14:09:44.637Z,6.16
2022-11-26T14:12:13.234Z,6.13
2022-11-26T14:14:42.415Z,6.14
2022-11-26T14:17:32.487Z,6.14
2022-11-26T14:20:04.133Z,6.15
2022-11-26T14:22:34.242Z,6.11
2022-11-26T14:25:10.440Z,6.05
2022-11-26T14:27:42.562Z,6.03
2022-11-26T14:30:09.834Z,6.06
2022-11-26T14:33:04.660Z,6.04
2022-11-26T14:35:40.748Z,5.93
2022-11-26T14:38:24.027Z,5.91
2022-11-26T14:41:01.553Z,5.88
2022-11-26T14:43:29.837Z,5.90
2022-11-26T14:46:17.774Z,5.94
2022-11-26T14:48:48.040Z,5.84
2022-11-26T14:51:26.846Z,5.85
2022-11-26T14:53:57.267Z,5.89
2022-11-26T14:56:26.146Z,5.83
2022-11-26T14:58:57.786Z,5.81
2022-11-26T15:01:27.139Z,5.75
2022-11-26T15:03:59.006Z,5.66
2022-11-26T15:06:35.200Z,5.60
2022-11-26T15:09:08.320Z,5.64
2022-11-26T15:11:38.241Z,5.65
2022-11-26T15:14:05.804Z,5.61
2022-11-26T15:16:36.964Z,5.66
2022-11-26T15:19:06.043Z,5.71
2022-11-26T15:21:34.764Z,5.72
2022-11-26T15:24:09.491Z,5.65
2022-11-26T15:26:38.760Z,5.64
2022-11-26T15:29:34.200Z,5.57
2022-11-26T15:32:01.680Z,5.60
2022-11-26T15:34:30.730Z,5.66
2022-11-26T15:37:00.524Z,5.74
2022-11-26T15:39:36.067Z,5.79
2022-11-26T15:42:21.828Z,5.81
2022-11-26T15:44:50.028Z,5.76
2022-11-26T15:47:20.669Z,5.66
2022-11-26T15:49:53.044Z,5.66
2022-11-26T15:52:25.348Z,5.61
2022-11-26T15:55:21.883Z,5.59
2022-11-26T15:57:52.149Z,5.60
2022-11-26T16:00:27.308Z,5.57
2022-11-26T16:02:54.796Z,5.53
2022-11-26T16:05:39.710Z,5.54
2022-11-26T16:08:31.079Z,5.48
2022-11-26T16:11:19.717Z,5.48
2022-11-26T16:13:48.081Z,5.47
2022-11-26T16:16:20.569Z,5.38
2022-11-26T16:18:56.278Z,5.30
2022-11-26T16:21:28.995Z,5.29
2022-11-26T16:24:08.443Z,5.24
2022-11-26T16:26:55.308Z,5.27
2022-11-26T16:29:22.396Z,5.28
2022-11-26T16:31:49.516Z,5.26
2022-11-26T16:34:16.788Z,5.26
2022-11-26T16:36:44.508Z,5.16
2022-11-26T16:39:16.837Z,5.21
2022-11-26T16:41:44.225Z,5.17
2022-11-26T16:44:11.277Z,5.16
2022-11-26T16:46:41.277Z,5.07
2022-11-26T16:49:11.237Z,4.93
2022-11-26T16:51:39.076Z,5.01
2022-11-26T16:54:08.226Z,5.03
2022-11-26T16:56:38.761Z,4.87
2022-11-26T16:59:14.389Z,4.92
2022-11-26T17:01:41.874Z,5.06
2022-11-26T17:04:11.865Z,5.10
2022-11-26T17:06:39.751Z,5.03
2022-11-26T17:09:06.721Z,5.13
2022-11-26T17:11:34.145Z,5.06
2022-11-26T17:14:03.465Z,5.07
2022-11-26T17:16:32.956Z,5.16
2022-11-26T17:19:09.745Z,5.07
2022-11-26T17:21:39.139Z,5.09
2022-11-26T17:24:06.584Z,4.94
2022-11-26T17:26:34.040Z,4.95
2022-11-26T17:29:07.833Z,4.95
2022-11-26T17:31:37.744Z,4.96
2022-11-26T17:34:04.945Z,4.97
2022-11-26T17:36:36.612Z,4.96
2022-11-26T17:39:04.744Z,4.86
2022-11-26T17:41:32.903Z,4.89
2022-11-26T17:43:59.955Z,4.88
2022-11-26T17:46:27.793Z,4.81
2022-11-26T17:48:59.634Z,4.79
2022-11-26T17:51:28.783Z,4.92
2022-11-26T17:53:56.333Z,4.97
2022-11-26T17:56:27.719Z,4.91
2022-11-26T17:59:00.265Z,4.95
2022-11-26T18:01:28.804Z,4.99
2022-11-26T18:03:56.397Z,5.01
2022-11-26T18:06:55.393Z,4.97
2022-11-26T18:09:22.589Z,4.92
2022-11-26T18:11:52.952Z,4.92
2022-11-26T18:14:21.156Z,4.84
2022-11-26T18:16:49.455Z,4.78
2022-11-26T18:19:17.995Z,4.76
2022-11-26T18:21:45.704Z,4.77
2022-11-26T18:24:13.994Z,4.72
2022-11-26T18:26:42.259Z,4.64
2022-11-26T18:29:12.112Z,4.51
2022-11-26T18:31:39.984Z,4.50
2022-11-26T18:34:08.109Z,4.56
2022-11-26T18:36:35.473Z,4.64
2022-11-26T18:39:04.943Z,4.71
2022-11-26T18:41:33.076Z,4.93
2022-11-26T18:44:02.102Z,4.86
2022-11-26T18:46:29.694Z,4.87
2022-11-26T18:48:58.075Z,4.88
2022-11-26T18:51:25.912Z,4.80
2022-11-26T18:53:53.521Z,4.64
2022-11-26T18:56:24.998Z,4.65
2022-11-26T18:58:52.864Z,4.74
2022-11-26T19:01:31.055Z,4.92
2022-11-26T19:03:59.637Z,4.90
2022-11-26T19:06:34.472Z,4.80
2022-11-26T19:09:06.624Z,4.80
2022-11-26T19:11:34.506Z,4.86
2022-11-26T19:14:02.343Z,4.87
2022-11-26T19:16:29.773Z,4.72
2022-11-26T19:18:57.711Z,4.52
2022-11-26T19:21:28.396Z,4.89
2022-11-26T19:23:58.595Z,4.84
2022-11-26T19:26:26.424Z,4.68
2022-11-26T19:28:54.382Z,4.65
2022-11-26T19:31:24.755Z,4.63
2022-11-26T19:33:58.758Z,4.88
2022-11-26T19:36:27.664Z,4.88
2022-11-26T19:39:02.672Z,4.85
2022-11-26T19:41:31.794Z,4.68
2022-11-26T19:44:04.424Z,4.61
2022-11-26T19:46:33.053Z,4.53
2022-11-26T19:49:01.072Z,4.43
2022-11-26T19:51:28.954Z,4.34
2022-11-26T19:53:58.198Z,4.43
2022-11-26T19:56:35.859Z,4.74
2022-11-26T19:59:04.682Z,4.80
2022-11-26T20:01:34.793Z,4.63
2022-11-26T20:04:05.542Z,4.65
2022-11-26T20:06:35.602Z,4.55
2022-11-26T20:09:05.594Z,4.37
2022-11-26T20:11:36.926Z,4.31
2022-11-26T20:14:05.168Z,4.42
2022-11-26T20:16:33.368Z,4.45
2022-11-26T20:19:03.150Z,4.55
2022-11-26T20:21:34.276Z,4.60
2022-11-26T20:24:05.914Z,4.54
2022-11-26T20:26:40.636Z,4.45
2022-11-26T20:29:12.586Z,4.30
2022-11-26T20:31:46.274Z,4.36
2022-11-26T20:34:26.365Z,4.53
2022-11-26T20:36:55.034Z,4.53
2022-11-26T20:39:24.635Z,4.37
2022-11-26T20:41:52.592Z,4.24
2022-11-26T20:44:20.433Z,4.35
2022-11-26T20:46:48.086Z,4.32
2022-11-26T20:49:16.827Z,4.23
2022-11-26T20:51:44.543Z,4.26
2022-11-26T20:54:18.368Z,4.23
2022-11-26T20:56:47.508Z,4.30
2022-11-26T20:59:15.429Z,4.35
2022-11-26T21:01:43.039Z,4.36
2022-11-26T21:04:10.350Z,4.25
2022-11-26T21:06:37.905Z,4.21
2022-11-26T21:09:07.891Z,4.24
2022-11-26T21:11:36.284Z,4.23
2022-11-26T21:14:09.525Z,4.32
2022-11-26T21:16:40.487Z,4.23
2022-11-26T21:19:13.474Z,4.27
2022-11-26T21:21:41.074Z,4.32
2022-11-26T21:24:09.184Z,4.45
2022-11-26T21:26:37.513Z,4.39
2022-11-26T21:29:29.865Z,4.39
2022-11-26T21:31:59.626Z,4.32
2022-11-26T21:34:26.904Z,4.21
2022-11-26T21:36:53.906Z,4.16
2022-11-26T21:39:21.338Z,4.24
2022-11-26T21:41:48.814Z,4.29
2022-11-26T21:44:15.974Z,4.46
2022-11-26T21:46:43.218Z,4.56
2022-11-26T21:49:11.050Z,4.67
2022-11-26T21:51:38.137Z,4.75
2022-11-26T21:54:05.882Z,4.82
2022-11-26T21:56:33.819Z,4.71
2022-11-26T21:59:02.185Z,4.81
2022-11-26T22:01:32.184Z,4.62
2022-11-26T22:04:02.882Z,4.63
2022-11-26T22:06:31.311Z,4.61
2022-11-26T22:09:00.623Z,4.50
2022-11-26T22:11:31.948Z,4.47
2022-11-26T22:13:59.348Z,4.42
2022-11-26T22:16:27.833Z,4.67
2022-11-26T22:18:56.564Z,4.59
2022-11-26T22:21:27.052Z,4.59
2022-11-26T22:23:54.487Z,4.57
2022-11-26T22:26:22.588Z,4.58
2022-11-26T22:28:51.081Z,4.58
2022-11-26T22:31:22.471Z,4.63
2022-11-26T22:33:54.065Z,4.63
2022-11-26T22:36:21.607Z,4.67
2022-11-26T22:38:48.953Z,4.65
2022-11-26T22:41:16.546Z,4.67
2022-11-26T22:43:45.330Z,4.64
2022-11-26T22:46:19.374Z,4.67
2022-11-26T22:48:52.344Z,4.67
2022-11-26T22:51:20.696Z,4.67
2022-11-26T22:53:59.808Z,4.71
2022-11-26T22:56:27.923Z,4.71
2022-11-26T22:58:55.299Z,4.70
2022-11-26T23:01:28.525Z,4.71
2022-11-26T23:03:58.527Z,4.92
2022-11-26T23:06:28.155Z,5.02
2022-11-26T23:08:59.114Z,5.02
2022-11-26T23:11:33.072Z,5.00
2022-11-26T23:14:02.324Z,4.92
2022-11-26T23:16:30.778Z,4.86
2022-11-26T23:18:58.469Z,4.76
2022-11-26T23:21:34.717Z,4.74
2022-11-26T23:24:02.223Z,4.76
2022-11-26T23:26:33.293Z,4.76
2022-11-26T23:29:01.940Z,4.76
2022-11-26T23:31:33.084Z,4.66
2022-11-26T23:34:00.704Z,4.68
2022-11-26T23:36:29.425Z,4.68
2022-11-26T23:38:56.894Z,4.71
2022-11-26T23:41:23.974Z,4.73
2022-11-26T23:43:52.619Z,4.71
2022-11-26T23:46:22.905Z,4.74
2022-11-26T23:48:50.876Z,4.69
2022-11-26T23:51:22.079Z,4.74
2022-11-26T23:53:50.908Z,4.80
2022-11-26T23:56:26.310Z,4.81
2022-11-26T23:59:02.985Z,4.77
